createdAt,value
2018-06-23T00:00:37.502Z,101597.56
2018-06-23T00:05:39.692Z,101599.77
2018-06-23T00:10:41.916Z,101603.05
2018-06-23T00:15:44.215Z,101593.20
2018-06-23T00:20:46.362Z,101591.94
2018-06-23T00:25:54.248Z,101588.14
2018-06-23T00:30:56.506Z,101587.20
2018-06-23T00:35:58.652Z,101585.09
2018-06-23T00:41:00.784Z,101582.74
2018-06-23T00:46:02.989Z,101575.69
2018-06-23T00:51:05.277Z,101565.23
2018-06-23T00:56:07.434Z,101564.15
2018-06-23T01:01:09.681Z,101562.61
2018-06-23T01:06:11.840Z,101567.62
2018-06-23T01:11:13.975Z,101572.41
2018-06-23T01:16:16.110Z,101566.77
2018-06-23T01:21:18.256Z,101568.37
2018-06-23T01:26:20.386Z,101570.56
2018-06-23T01:31:22.590Z,101568.35
2018-06-23T01:36:24.719Z,101577.64
2018-06-23T01:41:26.995Z,101570.55
2018-06-23T01:46:29.134Z,101574.09
2018-06-23T01:51:31.236Z,101563.05
2018-06-23T01:56:33.364Z,101559.61
2018-06-23T02:01:35.507Z,101567.22
2018-06-23T02:06:37.669Z,101554.80
2018-06-23T02:11:39.852Z,101561.62
2018-06-23T02:16:47.591Z,101561.70
2018-06-23T02:21:55.441Z,101555.71
2018-06-23T02:27:03.447Z,101556.79
2018-06-23T02:32:11.643Z,101557.19
2018-06-23T02:37:13.824Z,101557.08
2018-06-23T02:42:15.949Z,101564.11
2018-06-23T02:47:18.104Z,101555.03
2018-06-23T02:52:20.263Z,101568.50
2018-06-23T02:57:22.620Z,101565.28
2018-06-23T03:02:25.022Z,101559.03
2018-06-23T03:07:27.176Z,101555.86
2018-06-23T03:12:29.339Z,101560.39
2018-06-23T03:17:31.484Z,101565.95
2018-06-23T03:22:33.597Z,101564.53
2018-06-23T03:27:35.706Z,101572.09
2018-06-23T03:32:37.860Z,101569.42
2018-06-23T03:37:39.993Z,101579.72
2018-06-23T03:42:42.113Z,101582.44
2018-06-23T03:47:44.256Z,101586.33
2018-06-23T03:52:46.391Z,101590.47
2018-06-23T03:57:48.527Z,101586.67
2018-06-23T04:02:50.688Z,101595.31
2018-06-23T04:07:52.897Z,101597.45
2018-06-23T04:12:55.059Z,101603.98
2018-06-23T04:17:57.206Z,101599.36
2018-06-23T04:22:59.310Z,101600.18
2018-06-23T04:28:01.445Z,101604.26
2018-06-23T04:33:03.597Z,101604.26
2018-06-23T04:38:05.811Z,101606.69
2018-06-23T04:43:07.996Z,101597.86
2018-06-23T04:48:10.144Z,101602.53
2018-06-23T04:53:12.328Z,101608.06
2018-06-23T04:58:14.431Z,101609.91
2018-06-23T05:03:16.531Z,101619.82
2018-06-23T05:08:18.625Z,101615.06
2018-06-23T05:13:20.743Z,101609.09
2018-06-23T05:18:22.966Z,101604.27
2018-06-23T05:23:25.092Z,101610.34
2018-06-23T05:28:27.248Z,101608.40
2018-06-23T05:33:29.442Z,101607.94
2018-06-23T05:38:31.630Z,101599.36
2018-06-23T05:43:33.811Z,101617.41
2018-06-23T05:48:35.985Z,101625.02
2018-06-23T05:53:38.193Z,101623.88
2018-06-23T05:58:40.359Z,101631.55
2018-06-23T06:03:42.511Z,101625.02
2018-06-23T06:13:53.484Z,101643.08
2018-06-23T06:18:55.647Z,101632.95
2018-06-23T06:23:57.814Z,101619.72
2018-06-23T06:29:00.782Z,101624.90
2018-06-23T06:34:02.970Z,101635.41
2018-06-23T06:39:05.863Z,101646.00
2018-06-23T06:44:08.007Z,101636.78
2018-06-23T06:49:10.166Z,101636.63
2018-06-23T06:54:12.377Z,101628.56
2018-06-23T06:59:14.521Z,101629.25
2018-06-23T07:04:17.667Z,101630.54
2018-06-23T07:09:19.848Z,101626.73
2018-06-23T07:14:22.033Z,101634.80
2018-06-23T07:19:24.198Z,101635.19
2018-06-23T07:24:26.732Z,101638.56
2018-06-23T07:29:28.923Z,101632.94
2018-06-23T07:34:31.195Z,101631.32
2018-06-23T07:39:33.301Z,101637.47
2018-06-23T07:44:35.493Z,101625.71
2018-06-23T07:49:37.651Z,101619.20
2018-06-23T07:54:39.835Z,101630.02
2018-06-23T07:59:42.142Z,101619.78
2018-06-23T08:04:44.333Z,101613.75
2018-06-23T08:09:46.881Z,101629.65
2018-06-23T08:14:49.012Z,101634.23
2018-06-23T08:19:51.161Z,101639.97
2018-06-23T08:24:53.580Z,101643.86
2018-06-23T08:29:55.728Z,101619.97
2018-06-23T08:34:57.930Z,101622.05
2018-06-23T08:40:00.217Z,101613.57
2018-06-23T08:45:02.393Z,101635.21
2018-06-23T08:50:04.620Z,101645.94
2018-06-23T08:55:06.839Z,101637.86
2018-06-23T09:00:08.996Z,101646.36
2018-06-23T09:05:11.215Z,101660.16
2018-06-23T09:10:13.436Z,101652.77
2018-06-23T09:15:15.653Z,101649.27
2018-06-23T09:20:17.834Z,101664.97
2018-06-23T09:25:20.088Z,101659.25
2018-06-23T09:30:22.268Z,101674.03
2018-06-23T09:35:24.464Z,101665.77
2018-06-23T09:40:26.632Z,101673.64
2018-06-23T09:45:28.799Z,101658.77
2018-06-23T09:50:30.998Z,101663.45
2018-06-23T09:55:33.179Z,101677.05
2018-06-23T10:00:35.378Z,101673.66
2018-06-23T10:05:37.568Z,101668.31
2018-06-23T10:10:39.752Z,101676.69
2018-06-23T10:15:42.041Z,101697.40
2018-06-23T10:20:44.226Z,101595.81
2018-06-23T10:25:46.403Z,101695.59
2018-06-23T10:30:48.879Z,101688.88
2018-06-23T10:35:51.168Z,101691.20
2018-06-23T10:40:53.370Z,101691.17
2018-06-23T10:45:55.635Z,101694.86
2018-06-23T10:50:57.840Z,101695.66
2018-06-23T10:56:00.143Z,101689.56
2018-06-23T11:01:02.458Z,101719.87
2018-06-23T11:06:04.643Z,101716.34
2018-06-23T11:11:06.905Z,101717.62
2018-06-23T11:16:09.096Z,101711.70
2018-06-23T11:21:11.647Z,101705.59
2018-06-23T11:26:13.870Z,101702.45
2018-06-23T11:31:16.034Z,101698.56
2018-06-23T11:36:18.250Z,101706.14
2018-06-23T11:41:20.485Z,101709.80
2018-06-23T11:46:22.673Z,101710.93
2018-06-23T11:51:24.871Z,101717.30
2018-06-23T11:56:27.035Z,101726.05
2018-06-23T12:01:29.184Z,101723.27
2018-06-23T12:06:31.374Z,101719.33
2018-06-23T12:11:33.571Z,101736.30
2018-06-23T12:16:35.763Z,101730.48
2018-06-23T12:21:38.428Z,101716.23
2018-06-23T12:26:40.601Z,101716.34
2018-06-23T12:31:42.799Z,101716.50
2018-06-23T12:36:45.006Z,101716.86
2018-06-23T12:41:47.210Z,101724.48
2018-06-23T12:46:49.388Z,101633.08
2018-06-23T12:51:51.534Z,101718.88
2018-06-23T12:56:53.783Z,101703.94
2018-06-23T13:01:55.966Z,101709.23
2018-06-23T13:06:58.124Z,101705.78
2018-06-23T13:12:00.288Z,101695.45
2018-06-23T13:17:02.535Z,101687.48
2018-06-23T13:22:04.933Z,101687.83
2018-06-23T13:27:07.122Z,101692.27
2018-06-23T13:32:09.328Z,101685.57
2018-06-23T13:37:11.660Z,101677.20
2018-06-23T13:42:13.901Z,101684.59
2018-06-23T13:47:16.144Z,101689.61
2018-06-23T13:52:18.357Z,101686.00
2018-06-23T13:57:20.652Z,101686.56
2018-06-23T14:02:22.928Z,101694.16
2018-06-23T14:07:25.141Z,101695.78
2018-06-23T14:12:27.421Z,101702.70
2018-06-23T14:17:29.562Z,101706.16
2018-06-23T14:22:31.779Z,101689.46
2018-06-23T14:27:34.002Z,101689.10
2018-06-23T14:32:36.160Z,101691.48
2018-06-23T14:37:38.400Z,101687.72
2018-06-23T14:42:40.593Z,101692.21
2018-06-23T14:47:42.766Z,101691.20
2018-06-23T14:52:44.974Z,101687.23
2018-06-23T14:57:47.212Z,101689.78
2018-06-23T15:02:49.414Z,101686.36
2018-06-23T15:07:51.617Z,101675.62
2018-06-23T15:13:05.579Z,101676.98
2018-06-23T15:18:07.771Z,101691.21
2018-06-23T15:23:09.998Z,101682.91
2018-06-23T15:28:12.165Z,101685.95
2018-06-23T15:33:14.347Z,101692.52
2018-06-23T15:38:16.595Z,101681.11
2018-06-23T15:43:18.751Z,101688.59
2018-06-23T15:48:20.916Z,101678.61
2018-06-23T15:53:23.168Z,101673.15
2018-06-23T15:58:25.330Z,101672.75
2018-06-23T16:03:27.733Z,101673.03
2018-06-23T16:08:29.970Z,101662.49
2018-06-23T16:13:32.188Z,101681.79
2018-06-23T16:18:34.381Z,101684.16
2018-06-23T16:23:36.578Z,101679.43
2018-06-23T16:28:38.740Z,101672.12
2018-06-23T16:33:40.964Z,101670.98
2018-06-23T16:38:43.172Z,101663.55
2018-06-23T16:43:45.377Z,101665.80
2018-06-23T16:48:47.592Z,101656.66
2018-06-23T16:53:49.759Z,101666.38
2018-06-23T16:58:51.933Z,101664.93
2018-06-23T17:03:54.244Z,101661.47
2018-06-23T17:08:56.356Z,101654.77
2018-06-23T17:13:58.565Z,101672.34
2018-06-23T17:19:00.768Z,101672.64
2018-06-23T17:24:02.939Z,101668.61
2018-06-23T17:29:05.155Z,101663.53
2018-06-23T17:34:07.380Z,101664.72
2018-06-23T17:39:10.321Z,101667.34
2018-06-23T17:44:12.551Z,101663.97
2018-06-23T17:49:14.769Z,101672.81
2018-06-23T17:54:16.959Z,101663.92
2018-06-23T17:59:19.183Z,101675.66
2018-06-23T18:04:21.399Z,101675.88
2018-06-23T18:09:23.588Z,101674.77
2018-06-23T18:14:25.789Z,101677.47
2018-06-23T18:19:27.995Z,101683.33
2018-06-23T18:24:30.201Z,101680.08
2018-06-23T18:29:32.374Z,101682.13
2018-06-23T18:34:34.561Z,101679.91
2018-06-23T18:39:36.788Z,101685.34
2018-06-23T18:44:38.964Z,101681.11
2018-06-23T18:49:41.152Z,101691.45
2018-06-23T18:54:43.346Z,101694.67
2018-06-23T18:59:45.514Z,101686.98
2018-06-23T19:04:47.692Z,101694.59
2018-06-23T19:09:49.913Z,101690.36
2018-06-23T19:14:52.088Z,101690.18
2018-06-23T19:19:54.350Z,101696.05
2018-06-23T19:24:56.547Z,101689.84
2018-06-23T19:29:58.789Z,101685.84
2018-06-23T19:35:00.968Z,101697.13
2018-06-23T19:40:03.466Z,101690.63
2018-06-23T19:45:05.642Z,101700.78
2018-06-23T19:50:07.845Z,101700.78
2018-06-23T19:55:10.059Z,101698.69
2018-06-23T20:00:12.232Z,101711.36
2018-06-23T20:05:14.420Z,101697.31
2018-06-23T20:10:16.612Z,101700.36
2018-06-23T20:15:18.818Z,101703.14
2018-06-23T20:20:21.053Z,101716.62
2018-06-23T20:25:23.247Z,101706.14
2018-06-23T20:30:25.411Z,101714.63
2018-06-23T20:35:27.611Z,101717.52
2018-06-23T20:40:29.838Z,101720.11
2018-06-23T20:45:32.316Z,101715.80
2018-06-23T20:50:34.523Z,101725.75
2018-06-23T20:55:36.753Z,101721.45
2018-06-23T21:00:38.938Z,101724.97
2018-06-23T21:05:41.084Z,101728.85
2018-06-23T21:10:44.551Z,101739.94
2018-06-23T21:15:46.695Z,101734.23
2018-06-23T21:20:48.908Z,101741.17
2018-06-23T21:25:51.095Z,101734.34
2018-06-23T21:30:53.368Z,101740.09
2018-06-23T21:35:55.481Z,101734.23
2018-06-23T21:40:57.713Z,101728.66
2018-06-23T21:45:59.881Z,101730.60
2018-06-23T21:51:02.097Z,101721.19
2018-06-23T21:56:04.319Z,101726.59
2018-06-23T22:01:06.652Z,101713.12
2018-06-23T22:06:08.885Z,101706.11
2018-06-23T22:11:11.057Z,101701.01
2018-06-23T22:16:13.273Z,101699.41
2018-06-23T22:21:15.469Z,101697.59
2018-06-23T22:26:17.659Z,101691.94
2018-06-23T22:31:19.818Z,101691.95
2018-06-23T22:36:21.992Z,101684.43
2018-06-23T22:41:24.184Z,101683.39
2018-06-23T22:46:26.367Z,101686.75
2018-06-23T22:51:29.086Z,101624.83
2018-06-23T22:56:31.498Z,101678.55
2018-06-23T23:01:33.960Z,101683.77
2018-06-23T23:06:36.160Z,101691.48
2018-06-23T23:11:38.364Z,101690.08
2018-06-23T23:16:40.527Z,101681.91
2018-06-23T23:21:42.720Z,101677.79
2018-06-23T23:26:44.923Z,101673.31
2018-06-23T23:31:47.098Z,101675.59
2018-06-23T23:36:49.288Z,101673.59
2018-06-23T23:41:51.490Z,101669.91
2018-06-23T23:46:53.665Z,101670.49
2018-06-23T23:51:55.796Z,101665.70
2018-06-23T23:56:58.093Z,101660.91
